sensor_id;sensor_type;location;lat;lon;timestamp;P1;durP1;ratioP1;P2;durP2;ratioP2
58553;SDS011;48119;53.218;6.576;2022-09-16T00:02:17;3.70;;;1.45;;
58553;SDS011;48119;53.218;6.576;2022-09-16T00:04:43;4.07;;;1.30;;
58553;SDS011;48119;53.218;6.576;2022-09-16T00:07:09;4.57;;;1.70;;
58553;SDS011;48119;53.218;6.576;2022-09-16T00:09:35;5.28;;;1.63;;
58553;SDS011;48119;53.218;6.576;2022-09-16T00:12:02;3.75;;;0.85;;
58553;SDS011;48119;53.218;6.576;2022-09-16T00:14:32;6.63;;;1.67;;
58553;SDS011;48119;53.218;6.576;2022-09-16T00:16:57;4.00;;;1.15;;
58553;SDS011;48119;53.218;6.576;2022-09-16T00:19:23;5.20;;;2.20;;
58553;SDS011;48119;53.218;6.576;2022-09-16T00:21:49;7.25;;;1.95;;
58553;SDS011;48119;53.218;6.576;2022-09-16T00:24:15;5.68;;;1.80;;
58553;SDS011;48119;53.218;6.576;2022-09-16T00:26:41;9.32;;;2.50;;
58553;SDS011;48119;53.218;6.576;2022-09-16T00:29:07;8.23;;;3.67;;
58553;SDS011;48119;53.218;6.576;2022-09-16T00:31:34;9.43;;;2.88;;
58553;SDS011;48119;53.218;6.576;2022-09-16T00:34:00;6.43;;;3.58;;
58553;SDS011;48119;53.218;6.576;2022-09-16T00:36:26;9.73;;;4.60;;
58553;SDS011;48119;53.218;6.576;2022-09-16T00:38:52;8.35;;;3.35;;
58553;SDS011;48119;53.218;6.576;2022-09-16T00:41:23;5.13;;;2.20;;
58553;SDS011;48119;53.218;6.576;2022-09-16T00:44:04;7.60;;;2.85;;
58553;SDS011;48119;53.218;6.576;2022-09-16T00:46:42;5.20;;;2.28;;
58553;SDS011;48119;53.218;6.576;2022-09-16T00:49:20;4.75;;;2.75;;
58553;SDS011;48119;53.218;6.576;2022-09-16T00:51:55;9.73;;;3.03;;
58553;SDS011;48119;53.218;6.576;2022-09-16T00:54:29;9.05;;;3.38;;
58553;SDS011;48119;53.218;6.576;2022-09-16T00:57:02;6.20;;;2.53;;
58553;SDS011;48119;53.218;6.576;2022-09-16T00:59:30;6.63;;;1.92;;
58553;SDS011;48119;53.218;6.576;2022-09-16T01:02:01;5.72;;;2.20;;
58553;SDS011;48119;53.218;6.576;2022-09-16T01:04:33;5.93;;;1.45;;
58553;SDS011;48119;53.218;6.576;2022-09-16T01:07:03;3.67;;;1.02;;
58553;SDS011;48119;53.218;6.576;2022-09-16T01:09:29;3.45;;;1.52;;
58553;SDS011;48119;53.218;6.576;2022-09-16T01:11:55;3.83;;;1.52;;
58553;SDS011;48119;53.218;6.576;2022-09-16T01:14:21;4.43;;;1.45;;
58553;SDS011;48119;53.218;6.576;2022-09-16T01:33:25;10.30;;;3.55;;
58553;SDS011;48119;53.218;6.576;2022-09-16T01:55:40;5.38;;;1.40;;
58553;SDS011;48119;53.218;6.576;2022-09-16T01:58:16;7.20;;;2.58;;
58553;SDS011;48119;53.218;6.576;2022-09-16T02:01:07;6.22;;;2.28;;
58553;SDS011;48119;53.218;6.576;2022-09-16T02:03:41;9.75;;;3.05;;
58553;SDS011;48119;53.218;6.576;2022-09-16T02:06:17;12.05;;;3.65;;
58553;SDS011;48119;53.218;6.576;2022-09-16T02:11:46;7.20;;;2.33;;
58553;SDS011;48119;53.218;6.576;2022-09-16T02:14:27;5.43;;;1.65;;
58553;SDS011;48119;53.218;6.576;2022-09-16T02:22:15;5.25;;;1.17;;
58553;SDS011;48119;53.218;6.576;2022-09-16T02:24:45;3.55;;;1.30;;
58553;SDS011;48119;53.218;6.576;2022-09-16T02:27:14;9.02;;;1.40;;
58553;SDS011;48119;53.218;6.576;2022-09-16T02:29:44;4.88;;;1.42;;
58553;SDS011;48119;53.218;6.576;2022-09-16T02:32:13;5.70;;;0.98;;
58553;SDS011;48119;53.218;6.576;2022-09-16T02:34:41;4.63;;;0.95;;
58553;SDS011;48119;53.218;6.576;2022-09-16T02:37:15;2.88;;;0.98;;
58553;SDS011;48119;53.218;6.576;2022-09-16T02:39:49;3.38;;;1.20;;
58553;SDS011;48119;53.218;6.576;2022-09-16T02:42:19;4.93;;;1.20;;
58553;SDS011;48119;53.218;6.576;2022-09-16T02:44:45;5.88;;;2.00;;
58553;SDS011;48119;53.218;6.576;2022-09-16T02:47:13;8.98;;;2.33;;
58553;SDS011;48119;53.218;6.576;2022-09-16T02:50:00;6.60;;;2.35;;
58553;SDS011;48119;53.218;6.576;2022-09-16T02:58:14;4.03;;;1.58;;
58553;SDS011;48119;53.218;6.576;2022-09-16T03:00:42;8.25;;;1.90;;
58553;SDS011;48119;53.218;6.576;2022-09-16T03:03:17;6.10;;;2.08;;
58553;SDS011;48119;53.218;6.576;2022-09-16T03:08:43;5.68;;;1.52;;
58553;SDS011;48119;53.218;6.576;2022-09-16T03:16:56;3.17;;;1.35;;
58553;SDS011;48119;53.218;6.576;2022-09-16T03:25:38;7.30;;;1.80;;
58553;SDS011;48119;53.218;6.576;2022-09-16T03:28:14;8.55;;;2.25;;
58553;SDS011;48119;53.218;6.576;2022-09-16T03:31:07;5.13;;;1.20;;
58553;SDS011;48119;53.218;6.576;2022-09-16T03:36:04;7.75;;;1.67;;
58553;SDS011;48119;53.218;6.576;2022-09-16T03:38:34;9.02;;;2.83;;
58553;SDS011;48119;53.218;6.576;2022-09-16T03:41:03;7.88;;;1.60;;
58553;SDS011;48119;53.218;6.576;2022-09-16T03:43:34;6.78;;;1.83;;
58553;SDS011;48119;53.218;6.576;2022-09-16T03:46:00;7.13;;;1.58;;
58553;SDS011;48119;53.218;6.576;2022-09-16T03:48:26;4.15;;;1.92;;
58553;SDS011;48119;53.218;6.576;2022-09-16T03:50:53;6.90;;;1.83;;
58553;SDS011;48119;53.218;6.576;2022-09-16T03:53:19;6.82;;;1.75;;
58553;SDS011;48119;53.218;6.576;2022-09-16T03:55:49;6.20;;;1.40;;
58553;SDS011;48119;53.218;6.576;2022-09-16T03:58:15;5.63;;;1.80;;
58553;SDS011;48119;53.218;6.576;2022-09-16T04:00:42;7.72;;;1.40;;
58553;SDS011;48119;53.218;6.576;2022-09-16T04:03:12;4.20;;;1.48;;
58553;SDS011;48119;53.218;6.576;2022-09-16T04:05:41;8.77;;;1.83;;
58553;SDS011;48119;53.218;6.576;2022-09-16T04:08:07;7.45;;;2.13;;
58553;SDS011;48119;53.218;6.576;2022-09-16T04:10:33;6.72;;;1.63;;
58553;SDS011;48119;53.218;6.576;2022-09-16T04:13:00;4.25;;;1.83;;
58553;SDS011;48119;53.218;6.576;2022-09-16T04:15:29;5.15;;;1.92;;
58553;SDS011;48119;53.218;6.576;2022-09-16T04:17:55;5.15;;;1.25;;
58553;SDS011;48119;53.218;6.576;2022-09-16T04:20:21;5.97;;;1.50;;
58553;SDS011;48119;53.218;6.576;2022-09-16T04:22:48;5.25;;;1.38;;
58553;SDS011;48119;53.218;6.576;2022-09-16T04:25:14;6.47;;;1.35;;
58553;SDS011;48119;53.218;6.576;2022-09-16T04:27:41;7.28;;;1.73;;
58553;SDS011;48119;53.218;6.576;2022-09-16T04:30:08;7.18;;;1.23;;
58553;SDS011;48119;53.218;6.576;2022-09-16T04:32:40;6.60;;;1.50;;
58553;SDS011;48119;53.218;6.576;2022-09-16T04:35:06;5.05;;;1.30;;
58553;SDS011;48119;53.218;6.576;2022-09-16T04:37:34;9.88;;;1.63;;
58553;SDS011;48119;53.218;6.576;2022-09-16T04:40:00;7.75;;;1.38;;
58553;SDS011;48119;53.218;6.576;2022-09-16T04:42:26;6.13;;;1.35;;
58553;SDS011;48119;53.218;6.576;2022-09-16T04:44:53;7.80;;;1.65;;
58553;SDS011;48119;53.218;6.576;2022-09-16T04:47:19;4.63;;;1.20;;
58553;SDS011;48119;53.218;6.576;2022-09-16T04:49:46;10.18;;;2.03;;
58553;SDS011;48119;53.218;6.576;2022-09-16T04:52:15;6.88;;;2.35;;
58553;SDS011;48119;53.218;6.576;2022-09-16T04:54:42;5.07;;;1.90;;
58553;SDS011;48119;53.218;6.576;2022-09-16T04:57:08;11.93;;;1.75;;
58553;SDS011;48119;53.218;6.576;2022-09-16T04:59:34;11.35;;;2.65;;
58553;SDS011;48119;53.218;6.576;2022-09-16T05:02:00;8.55;;;1.52;;
58553;SDS011;48119;53.218;6.576;2022-09-16T05:04:26;5.80;;;2.33;;
58553;SDS011;48119;53.218;6.576;2022-09-16T05:06:51;5.93;;;1.70;;
58553;SDS011;48119;53.218;6.576;2022-09-16T05:09:17;8.00;;;1.77;;
58553;SDS011;48119;53.218;6.576;2022-09-16T05:11:46;10.85;;;2.20;;
58553;SDS011;48119;53.218;6.576;2022-09-16T05:14:14;11.05;;;2.08;;
58553;SDS011;48119;53.218;6.576;2022-09-16T05:16:41;15.02;;;2.47;;
58553;SDS011;48119;53.218;6.576;2022-09-16T05:19:12;8.35;;;1.80;;
58553;SDS011;48119;53.218;6.576;2022-09-16T05:21:38;4.57;;;1.40;;
58553;SDS011;48119;53.218;6.576;2022-09-16T05:24:06;8.05;;;2.05;;
58553;SDS011;48119;53.218;6.576;2022-09-16T05:26:33;7.50;;;2.05;;
58553;SDS011;48119;53.218;6.576;2022-09-16T05:29:01;5.10;;;1.52;;
58553;SDS011;48119;53.218;6.576;2022-09-16T05:31:30;7.30;;;1.88;;
58553;SDS011;48119;53.218;6.576;2022-09-16T05:33:58;12.85;;;2.33;;
58553;SDS011;48119;53.218;6.576;2022-09-16T05:36:26;13.73;;;2.22;;
58553;SDS011;48119;53.218;6.576;2022-09-16T05:38:54;8.60;;;2.10;;
58553;SDS011;48119;53.218;6.576;2022-09-16T05:41:20;6.40;;;1.95;;
58553;SDS011;48119;53.218;6.576;2022-09-16T05:43:46;9.20;;;1.95;;
58553;SDS011;48119;53.218;6.576;2022-09-16T05:46:19;5.95;;;1.88;;
58553;SDS011;48119;53.218;6.576;2022-09-16T05:48:46;7.80;;;1.88;;
58553;SDS011;48119;53.218;6.576;2022-09-16T05:51:14;9.27;;;2.47;;
58553;SDS011;48119;53.218;6.576;2022-09-16T05:53:41;6.88;;;1.75;;
58553;SDS011;48119;53.218;6.576;2022-09-16T05:56:26;15.40;;;2.10;;
58553;SDS011;48119;53.218;6.576;2022-09-16T05:58:54;12.90;;;2.03;;
58553;SDS011;48119;53.218;6.576;2022-09-16T06:01:25;9.48;;;1.80;;
58553;SDS011;48119;53.218;6.576;2022-09-16T06:04:01;13.90;;;2.40;;
58553;SDS011;48119;53.218;6.576;2022-09-16T06:06:30;8.20;;;2.08;;
58553;SDS011;48119;53.218;6.576;2022-09-16T06:09:07;12.35;;;2.83;;
58553;SDS011;48119;53.218;6.576;2022-09-16T06:11:36;10.35;;;2.40;;
58553;SDS011;48119;53.218;6.576;2022-09-16T06:14:03;13.23;;;2.38;;
58553;SDS011;48119;53.218;6.576;2022-09-16T06:16:30;9.35;;;2.30;;
58553;SDS011;48119;53.218;6.576;2022-09-16T06:18:57;8.45;;;2.28;;
58553;SDS011;48119;53.218;6.576;2022-09-16T06:21:27;9.00;;;1.95;;
58553;SDS011;48119;53.218;6.576;2022-09-16T06:23:54;8.18;;;1.90;;
58553;SDS011;48119;53.218;6.576;2022-09-16T06:26:21;6.45;;;1.83;;
58553;SDS011;48119;53.218;6.576;2022-09-16T06:28:49;6.75;;;2.22;;
58553;SDS011;48119;53.218;6.576;2022-09-16T06:31:17;10.00;;;2.17;;
58553;SDS011;48119;53.218;6.576;2022-09-16T06:33:44;7.43;;;2.08;;
58553;SDS011;48119;53.218;6.576;2022-09-16T06:36:12;11.05;;;1.90;;
58553;SDS011;48119;53.218;6.576;2022-09-16T06:38:43;7.13;;;2.25;;
58553;SDS011;48119;53.218;6.576;2022-09-16T06:41:17;9.52;;;2.67;;
58553;SDS011;48119;53.218;6.576;2022-09-16T06:43:45;8.68;;;2.30;;
58553;SDS011;48119;53.218;6.576;2022-09-16T06:46:16;11.07;;;2.50;;
58553;SDS011;48119;53.218;6.576;2022-09-16T06:48:44;11.10;;;2.63;;
58553;SDS011;48119;53.218;6.576;2022-09-16T06:51:13;6.10;;;1.90;;
58553;SDS011;48119;53.218;6.576;2022-09-16T06:53:42;10.32;;;2.90;;
58553;SDS011;48119;53.218;6.576;2022-09-16T06:56:09;11.60;;;2.55;;
58553;SDS011;48119;53.218;6.576;2022-09-16T06:58:38;11.43;;;3.08;;
58553;SDS011;48119;53.218;6.576;2022-09-16T07:01:06;6.88;;;1.95;;
58553;SDS011;48119;53.218;6.576;2022-09-16T07:03:37;8.88;;;2.13;;
58553;SDS011;48119;53.218;6.576;2022-09-16T07:06:05;12.23;;;2.50;;
58553;SDS011;48119;53.218;6.576;2022-09-16T07:08:32;10.40;;;2.30;;
58553;SDS011;48119;53.218;6.576;2022-09-16T07:11:04;9.70;;;1.90;;
58553;SDS011;48119;53.218;6.576;2022-09-16T07:13:37;14.00;;;2.97;;
58553;SDS011;48119;53.218;6.576;2022-09-16T07:16:05;7.13;;;1.85;;
58553;SDS011;48119;53.218;6.576;2022-09-16T07:18:32;5.75;;;2.00;;
58553;SDS011;48119;53.218;6.576;2022-09-16T07:21:18;8.38;;;2.28;;
58553;SDS011;48119;53.218;6.576;2022-09-16T07:23:48;8.10;;;1.70;;
58553;SDS011;48119;53.218;6.576;2022-09-16T07:26:18;6.78;;;1.67;;
58553;SDS011;48119;53.218;6.576;2022-09-16T07:28:47;11.05;;;2.40;;
58553;SDS011;48119;53.218;6.576;2022-09-16T07:31:18;9.75;;;2.35;;
58553;SDS011;48119;53.218;6.576;2022-09-16T07:33:49;11.90;;;2.20;;
58553;SDS011;48119;53.218;6.576;2022-09-16T07:36:24;10.68;;;2.55;;
58553;SDS011;48119;53.218;6.576;2022-09-16T07:38:52;7.43;;;2.00;;
58553;SDS011;48119;53.218;6.576;2022-09-16T07:41:20;8.50;;;2.35;;
58553;SDS011;48119;53.218;6.576;2022-09-16T07:43:48;5.72;;;1.88;;
58553;SDS011;48119;53.218;6.576;2022-09-16T07:46:15;7.15;;;1.73;;
58553;SDS011;48119;53.218;6.576;2022-09-16T07:48:43;8.52;;;1.98;;
58553;SDS011;48119;53.218;6.576;2022-09-16T07:51:11;10.30;;;2.83;;
58553;SDS011;48119;53.218;6.576;2022-09-16T07:53:40;13.70;;;2.38;;
58553;SDS011;48119;53.218;6.576;2022-09-16T07:56:07;17.15;;;3.35;;
58553;SDS011;48119;53.218;6.576;2022-09-16T07:58:35;11.45;;;3.17;;
58553;SDS011;48119;53.218;6.576;2022-09-16T08:01:02;10.27;;;2.80;;
58553;SDS011;48119;53.218;6.576;2022-09-16T08:03:36;9.00;;;2.10;;
58553;SDS011;48119;53.218;6.576;2022-09-16T08:06:04;13.75;;;2.95;;
58553;SDS011;48119;53.218;6.576;2022-09-16T08:08:32;9.68;;;2.80;;
58553;SDS011;48119;53.218;6.576;2022-09-16T08:10:58;10.57;;;2.58;;
58553;SDS011;48119;53.218;6.576;2022-09-16T08:13:25;11.55;;;2.75;;
58553;SDS011;48119;53.218;6.576;2022-09-16T08:15:53;12.23;;;3.00;;
58553;SDS011;48119;53.218;6.576;2022-09-16T08:18:20;11.25;;;2.83;;
58553;SDS011;48119;53.218;6.576;2022-09-16T08:20:46;11.43;;;2.58;;
58553;SDS011;48119;53.218;6.576;2022-09-16T08:23:12;13.23;;;2.60;;
58553;SDS011;48119;53.218;6.576;2022-09-16T08:25:38;9.55;;;2.33;;
58553;SDS011;48119;53.218;6.576;2022-09-16T08:28:10;9.65;;;2.67;;
58553;SDS011;48119;53.218;6.576;2022-09-16T08:30:45;11.63;;;2.60;;
58553;SDS011;48119;53.218;6.576;2022-09-16T08:33:13;9.73;;;3.15;;
58553;SDS011;48119;53.218;6.576;2022-09-16T08:35:38;10.98;;;3.00;;
58553;SDS011;48119;53.218;6.576;2022-09-16T08:38:04;9.35;;;1.85;;
58553;SDS011;48119;53.218;6.576;2022-09-16T08:40:33;7.30;;;1.65;;
58553;SDS011;48119;53.218;6.576;2022-09-16T08:45:51;7.18;;;2.55;;
58553;SDS011;48119;53.218;6.576;2022-09-16T08:48:32;9.52;;;3.33;;
58553;SDS011;48119;53.218;6.576;2022-09-16T08:51:10;8.18;;;2.30;;
58553;SDS011;48119;53.218;6.576;2022-09-16T08:59:03;8.23;;;2.40;;
58553;SDS011;48119;53.218;6.576;2022-09-16T09:04:46;10.43;;;2.22;;
58553;SDS011;48119;53.218;6.576;2022-09-16T09:10:34;15.15;;;2.72;;
58553;SDS011;48119;53.218;6.576;2022-09-16T09:13:37;11.95;;;2.85;;
58553;SDS011;48119;53.218;6.576;2022-09-16T09:25:22;12.18;;;2.22;;
58553;SDS011;48119;53.218;6.576;2022-09-16T09:30:26;11.95;;;3.20;;
58553;SDS011;48119;53.218;6.576;2022-09-16T09:44:29;9.02;;;2.75;;
58553;SDS011;48119;53.218;6.576;2022-09-16T09:47:10;11.15;;;2.70;;
58553;SDS011;48119;53.218;6.576;2022-09-16T09:49:50;4.68;;;1.90;;
58553;SDS011;48119;53.218;6.576;2022-09-16T09:54:59;6.28;;;1.50;;
58553;SDS011;48119;53.218;6.576;2022-09-16T09:57:38;5.25;;;1.90;;
58553;SDS011;48119;53.218;6.576;2022-09-16T10:00:15;6.55;;;1.80;;
58553;SDS011;48119;53.218;6.576;2022-09-16T10:02:44;8.90;;;2.38;;
58553;SDS011;48119;53.218;6.576;2022-09-16T10:05:25;8.13;;;1.73;;
58553;SDS011;48119;53.218;6.576;2022-09-16T10:07:57;9.68;;;2.28;;
58553;SDS011;48119;53.218;6.576;2022-09-16T10:10:28;8.95;;;2.33;;
58553;SDS011;48119;53.218;6.576;2022-09-16T10:13:08;10.48;;;2.70;;
58553;SDS011;48119;53.218;6.576;2022-09-16T10:15:35;4.75;;;1.65;;
58553;SDS011;48119;53.218;6.576;2022-09-16T10:18:07;6.35;;;1.70;;
58553;SDS011;48119;53.218;6.576;2022-09-16T10:20:43;7.75;;;1.80;;
58553;SDS011;48119;53.218;6.576;2022-09-16T10:23:19;14.88;;;1.98;;
58553;SDS011;48119;53.218;6.576;2022-09-16T10:25:47;8.60;;;2.13;;
58553;SDS011;48119;53.218;6.576;2022-09-16T10:28:21;9.25;;;2.85;;
58553;SDS011;48119;53.218;6.576;2022-09-16T10:30:51;10.45;;;2.38;;
58553;SDS011;48119;53.218;6.576;2022-09-16T10:33:35;8.48;;;2.67;;
58553;SDS011;48119;53.218;6.576;2022-09-16T10:36:08;18.13;;;3.90;;
58553;SDS011;48119;53.218;6.576;2022-09-16T10:38:42;10.20;;;2.53;;
58553;SDS011;48119;53.218;6.576;2022-09-16T10:41:16;7.00;;;2.33;;
58553;SDS011;48119;53.218;6.576;2022-09-16T10:43:50;12.13;;;3.63;;
58553;SDS011;48119;53.218;6.576;2022-09-16T10:46:21;9.02;;;2.28;;
58553;SDS011;48119;53.218;6.576;2022-09-16T10:48:48;11.30;;;2.25;;
58553;SDS011;48119;53.218;6.576;2022-09-16T10:51:28;8.57;;;2.10;;
58553;SDS011;48119;53.218;6.576;2022-09-16T10:53:59;8.68;;;2.13;;
58553;SDS011;48119;53.218;6.576;2022-09-16T10:56:31;12.63;;;2.35;;
58553;SDS011;48119;53.218;6.576;2022-09-16T10:59:11;8.30;;;2.53;;
58553;SDS011;48119;53.218;6.576;2022-09-16T11:01:42;7.25;;;1.90;;
58553;SDS011;48119;53.218;6.576;2022-09-16T11:07:03;7.25;;;2.22;;
58553;SDS011;48119;53.218;6.576;2022-09-16T11:09:33;8.25;;;2.13;;
58553;SDS011;48119;53.218;6.576;2022-09-16T11:31:51;14.52;;;3.72;;
58553;SDS011;48119;53.218;6.576;2022-09-16T11:46:20;12.73;;;3.28;;
58553;SDS011;48119;53.218;6.576;2022-09-16T11:57:00;11.15;;;2.55;;
58553;SDS011;48119;53.218;6.576;2022-09-16T11:59:44;12.10;;;2.28;;
58553;SDS011;48119;53.218;6.576;2022-09-16T12:05:06;9.52;;;2.65;;
58553;SDS011;48119;53.218;6.576;2022-09-16T12:10:46;11.68;;;3.25;;
58553;SDS011;48119;53.218;6.576;2022-09-16T12:15:54;17.65;;;3.65;;
58553;SDS011;48119;53.218;6.576;2022-09-16T12:18:25;18.42;;;3.28;;
58553;SDS011;48119;53.218;6.576;2022-09-16T12:20:53;15.68;;;3.30;;
58553;SDS011;48119;53.218;6.576;2022-09-16T12:23:31;10.75;;;3.22;;
58553;SDS011;48119;53.218;6.576;2022-09-16T12:26:10;13.02;;;3.22;;
58553;SDS011;48119;53.218;6.576;2022-09-16T12:32:11;14.10;;;3.45;;
58553;SDS011;48119;53.218;6.576;2022-09-16T12:34:47;20.80;;;4.38;;
58553;SDS011;48119;53.218;6.576;2022-09-16T12:39:51;14.77;;;4.07;;
58553;SDS011;48119;53.218;6.576;2022-09-16T12:54:13;10.55;;;2.40;;
58553;SDS011;48119;53.218;6.576;2022-09-16T13:05:35;9.13;;;1.80;;
58553;SDS011;48119;53.218;6.576;2022-09-16T13:08:17;5.07;;;1.55;;
58553;SDS011;48119;53.218;6.576;2022-09-16T13:10:52;5.28;;;1.38;;
58553;SDS011;48119;53.218;6.576;2022-09-16T13:13:33;7.70;;;1.70;;
58553;SDS011;48119;53.218;6.576;2022-09-16T13:18:44;5.25;;;1.20;;
58553;SDS011;48119;53.218;6.576;2022-09-16T13:21:21;6.00;;;1.40;;
58553;SDS011;48119;53.218;6.576;2022-09-16T13:24:04;5.78;;;1.67;;
58553;SDS011;48119;53.218;6.576;2022-09-16T13:26:52;6.95;;;1.52;;
58553;SDS011;48119;53.218;6.576;2022-09-16T13:29:39;3.97;;;1.42;;
58553;SDS011;48119;53.218;6.576;2022-09-16T13:32:24;8.18;;;2.60;;
58553;SDS011;48119;53.218;6.576;2022-09-16T13:35:19;5.95;;;1.73;;
58553;SDS011;48119;53.218;6.576;2022-09-16T13:37:50;11.90;;;2.15;;
58553;SDS011;48119;53.218;6.576;2022-09-16T13:40:24;4.07;;;1.17;;
58553;SDS011;48119;53.218;6.576;2022-09-16T13:42:50;3.55;;;1.27;;
58553;SDS011;48119;53.218;6.576;2022-09-16T13:45:34;4.18;;;1.40;;
58553;SDS011;48119;53.218;6.576;2022-09-16T13:48:39;8.48;;;1.50;;
58553;SDS011;48119;53.218;6.576;2022-09-16T13:51:37;5.47;;;2.00;;
58553;SDS011;48119;53.218;6.576;2022-09-16T13:54:14;5.90;;;1.67;;
58553;SDS011;48119;53.218;6.576;2022-09-16T14:13:30;8.98;;;2.08;;
58553;SDS011;48119;53.218;6.576;2022-09-16T14:16:01;6.95;;;2.30;;
58553;SDS011;48119;53.218;6.576;2022-09-16T14:18:28;12.40;;;2.97;;
58553;SDS011;48119;53.218;6.576;2022-09-16T14:21:01;9.30;;;2.78;;
58553;SDS011;48119;53.218;6.576;2022-09-16T14:23:46;12.55;;;4.45;;
58553;SDS011;48119;53.218;6.576;2022-09-16T14:26:22;8.82;;;2.15;;
58553;SDS011;48119;53.218;6.576;2022-09-16T14:28:48;8.18;;;2.75;;
58553;SDS011;48119;53.218;6.576;2022-09-16T14:31:27;8.25;;;2.92;;
58553;SDS011;48119;53.218;6.576;2022-09-16T14:33:56;7.28;;;2.60;;
58553;SDS011;48119;53.218;6.576;2022-09-16T14:36:33;9.82;;;3.22;;
58553;SDS011;48119;53.218;6.576;2022-09-16T14:41:39;8.15;;;2.90;;
58553;SDS011;48119;53.218;6.576;2022-09-16T14:44:12;6.43;;;1.75;;
58553;SDS011;48119;53.218;6.576;2022-09-16T14:46:45;7.13;;;2.90;;
58553;SDS011;48119;53.218;6.576;2022-09-16T14:49:21;8.52;;;1.67;;
58553;SDS011;48119;53.218;6.576;2022-09-16T14:51:49;5.75;;;1.77;;
58553;SDS011;48119;53.218;6.576;2022-09-16T14:54:20;6.40;;;2.10;;
58553;SDS011;48119;53.218;6.576;2022-09-16T14:56:57;5.53;;;2.00;;
58553;SDS011;48119;53.218;6.576;2022-09-16T14:59:38;7.55;;;2.25;;
58553;SDS011;48119;53.218;6.576;2022-09-16T15:02:15;12.70;;;2.05;;
58553;SDS011;48119;53.218;6.576;2022-09-16T15:05:04;6.35;;;1.83;;
58553;SDS011;48119;53.218;6.576;2022-09-16T15:07:54;7.57;;;1.75;;
58553;SDS011;48119;53.218;6.576;2022-09-16T15:10:44;6.80;;;1.73;;
58553;SDS011;48119;53.218;6.576;2022-09-16T15:13:14;9.80;;;1.98;;
58553;SDS011;48119;53.218;6.576;2022-09-16T15:15:47;8.13;;;2.28;;
58553;SDS011;48119;53.218;6.576;2022-09-16T15:18:22;13.00;;;2.63;;
58553;SDS011;48119;53.218;6.576;2022-09-16T15:20:50;11.57;;;3.03;;
58553;SDS011;48119;53.218;6.576;2022-09-16T15:23:22;7.32;;;3.35;;
58553;SDS011;48119;53.218;6.576;2022-09-16T15:25:55;11.45;;;3.08;;
58553;SDS011;48119;53.218;6.576;2022-09-16T15:28:24;9.13;;;2.55;;
58553;SDS011;48119;53.218;6.576;2022-09-16T15:30:51;6.43;;;2.20;;
58553;SDS011;48119;53.218;6.576;2022-09-16T15:33:32;8.25;;;2.58;;
58553;SDS011;48119;53.218;6.576;2022-09-16T15:36:00;12.60;;;3.05;;
58553;SDS011;48119;53.218;6.576;2022-09-16T15:38:27;11.73;;;2.92;;
58553;SDS011;48119;53.218;6.576;2022-09-16T15:41:00;9.23;;;2.25;;
58553;SDS011;48119;53.218;6.576;2022-09-16T15:43:34;10.00;;;2.58;;
58553;SDS011;48119;53.218;6.576;2022-09-16T15:46:13;8.82;;;3.00;;
58553;SDS011;48119;53.218;6.576;2022-09-16T15:48:47;8.63;;;2.47;;
58553;SDS011;48119;53.218;6.576;2022-09-16T16:01:59;8.95;;;3.65;;
58553;SDS011;48119;53.218;6.576;2022-09-16T16:04:30;11.32;;;2.50;;
58553;SDS011;48119;53.218;6.576;2022-09-16T16:06:59;10.18;;;3.42;;
58553;SDS011;48119;53.218;6.576;2022-09-16T16:11:52;14.27;;;3.13;;
58553;SDS011;48119;53.218;6.576;2022-09-16T16:14:18;9.43;;;3.13;;
58553;SDS011;48119;53.218;6.576;2022-09-16T16:16:46;11.88;;;3.60;;
58553;SDS011;48119;53.218;6.576;2022-09-16T16:19:12;10.40;;;3.17;;
58553;SDS011;48119;53.218;6.576;2022-09-16T16:21:39;12.48;;;2.72;;
58553;SDS011;48119;53.218;6.576;2022-09-16T16:24:13;13.27;;;3.67;;
58553;SDS011;48119;53.218;6.576;2022-09-16T16:26:39;9.85;;;3.10;;
58553;SDS011;48119;53.218;6.576;2022-09-16T16:29:06;9.38;;;2.85;;
58553;SDS011;48119;53.218;6.576;2022-09-16T16:31:32;13.55;;;3.63;;
58553;SDS011;48119;53.218;6.576;2022-09-16T16:33:59;9.25;;;3.33;;
58553;SDS011;48119;53.218;6.576;2022-09-16T16:36:25;9.90;;;2.40;;
58553;SDS011;48119;53.218;6.576;2022-09-16T16:38:52;8.73;;;2.55;;
58553;SDS011;48119;53.218;6.576;2022-09-16T16:41:19;10.98;;;3.28;;
58553;SDS011;48119;53.218;6.576;2022-09-16T16:43:45;6.43;;;2.15;;
58553;SDS011;48119;53.218;6.576;2022-09-16T16:46:12;9.50;;;3.10;;
58553;SDS011;48119;53.218;6.576;2022-09-16T16:48:38;8.95;;;2.63;;
58553;SDS011;48119;53.218;6.576;2022-09-16T16:51:05;6.78;;;3.38;;
58553;SDS011;48119;53.218;6.576;2022-09-16T16:53:35;12.38;;;2.63;;
58553;SDS011;48119;53.218;6.576;2022-09-16T16:56:07;10.63;;;2.50;;
58553;SDS011;48119;53.218;6.576;2022-09-16T16:58:35;8.52;;;2.85;;
58553;SDS011;48119;53.218;6.576;2022-09-16T17:01:08;7.93;;;2.83;;
58553;SDS011;48119;53.218;6.576;2022-09-16T17:03:39;7.82;;;2.33;;
58553;SDS011;48119;53.218;6.576;2022-09-16T17:06:06;11.98;;;2.58;;
58553;SDS011;48119;53.218;6.576;2022-09-16T17:08:32;10.10;;;2.17;;
58553;SDS011;48119;53.218;6.576;2022-09-16T17:13:31;10.18;;;2.88;;
58553;SDS011;48119;53.218;6.576;2022-09-16T17:15:57;5.57;;;1.88;;
58553;SDS011;48119;53.218;6.576;2022-09-16T17:18:23;10.05;;;3.30;;
58553;SDS011;48119;53.218;6.576;2022-09-16T17:20:52;10.55;;;4.50;;
58553;SDS011;48119;53.218;6.576;2022-09-16T17:23:18;11.95;;;4.07;;
58553;SDS011;48119;53.218;6.576;2022-09-16T17:25:48;7.38;;;3.33;;
58553;SDS011;48119;53.218;6.576;2022-09-16T17:28:15;10.10;;;3.70;;
58553;SDS011;48119;53.218;6.576;2022-09-16T17:30:44;19.08;;;3.78;;
58553;SDS011;48119;53.218;6.576;2022-09-16T17:33:10;9.88;;;2.80;;
58553;SDS011;48119;53.218;6.576;2022-09-16T17:35:36;12.52;;;3.78;;
58553;SDS011;48119;53.218;6.576;2022-09-16T17:38:02;11.30;;;4.40;;
58553;SDS011;48119;53.218;6.576;2022-09-16T17:40:28;12.18;;;3.35;;
58553;SDS011;48119;53.218;6.576;2022-09-16T17:42:56;13.60;;;5.68;;
58553;SDS011;48119;53.218;6.576;2022-09-16T17:45:22;10.35;;;4.38;;
58553;SDS011;48119;53.218;6.576;2022-09-16T17:47:48;19.63;;;4.50;;
58553;SDS011;48119;53.218;6.576;2022-09-16T17:50:14;15.85;;;4.60;;
58553;SDS011;48119;53.218;6.576;2022-09-16T17:52:42;15.65;;;4.47;;
58553;SDS011;48119;53.218;6.576;2022-09-16T17:55:08;14.15;;;4.97;;
58553;SDS011;48119;53.218;6.576;2022-09-16T17:57:35;11.20;;;3.90;;
58553;SDS011;48119;53.218;6.576;2022-09-16T18:00:02;15.15;;;3.30;;
58553;SDS011;48119;53.218;6.576;2022-09-16T18:02:29;13.00;;;3.97;;
58553;SDS011;48119;53.218;6.576;2022-09-16T18:04:55;12.48;;;3.10;;
58553;SDS011;48119;53.218;6.576;2022-09-16T18:07:21;9.07;;;3.38;;
58553;SDS011;48119;53.218;6.576;2022-09-16T18:09:47;14.82;;;4.97;;
58553;SDS011;48119;53.218;6.576;2022-09-16T18:12:14;12.07;;;4.18;;
58553;SDS011;48119;53.218;6.576;2022-09-16T18:14:41;8.85;;;3.38;;
58553;SDS011;48119;53.218;6.576;2022-09-16T18:17:06;10.45;;;3.42;;
58553;SDS011;48119;53.218;6.576;2022-09-16T18:19:32;11.27;;;3.22;;
58553;SDS011;48119;53.218;6.576;2022-09-16T18:21:58;13.75;;;3.47;;
58553;SDS011;48119;53.218;6.576;2022-09-16T18:24:24;13.85;;;3.55;;
58553;SDS011;48119;53.218;6.576;2022-09-16T18:26:50;15.38;;;3.65;;
58553;SDS011;48119;53.218;6.576;2022-09-16T18:29:16;15.35;;;3.72;;
58553;SDS011;48119;53.218;6.576;2022-09-16T18:31:42;11.35;;;4.28;;
58553;SDS011;48119;53.218;6.576;2022-09-16T18:34:12;12.45;;;4.32;;
58553;SDS011;48119;53.218;6.576;2022-09-16T18:36:40;7.45;;;2.83;;
58553;SDS011;48119;53.218;6.576;2022-09-16T18:39:09;9.02;;;2.63;;
58553;SDS011;48119;53.218;6.576;2022-09-16T18:41:38;9.85;;;2.38;;
58553;SDS011;48119;53.218;6.576;2022-09-16T18:44:14;11.10;;;2.63;;
58553;SDS011;48119;53.218;6.576;2022-09-16T18:46:41;11.10;;;2.58;;
58553;SDS011;48119;53.218;6.576;2022-09-16T18:49:08;12.27;;;2.85;;